Time;durP1;ratioP1;P1;durP2;ratioP2;P2;SDS_P1;SDS_P2;PMS_P1;PMS_P2;Temp;Humidity;BMP_temperature;BMP_pressure;BME280_temperature;BME280_humidity;BME280_pressure;Samples;Min_cycle;Max_cycle;Signal;HPM_P1;HPM_P2
2021/01/29 00:02:15;;;;;;;0.98;0.63;;;10.90;98.80;;;;;;6251128;28;20053;-78
2021/01/29 00:05:16;;;;;;;1.95;0.85;;;10.80;99.00;;;;;;6251657;28;20124;-77
2021/01/29 00:08:19;;;;;;;4.20;1.33;;;10.90;99.30;;;;;;6250854;28;20422;-77
2021/01/29 00:11:20;;;;;;;2.15;0.52;;;10.90;99.50;;;;;;6250521;28;20049;-77
2021/01/29 00:14:21;;;;;;;1.48;0.68;;;10.90;99.70;;;;;;6250276;28;20048;-77
2021/01/29 00:17:23;;;;;;;0.65;0.65;;;10.90;99.60;;;;;;6250690;28;20592;-76
2021/01/29 00:20:26;;;;;;;1.45;0.85;;;10.90;99.90;;;;;;6250532;28;20526;-77
2021/01/29 00:23:29;;;;;;;1.38;0.60;;;10.90;99.80;;;;;;6250079;28;20061;-76
2021/01/29 00:26:30;;;;;;;3.22;1.38;;;11.00;99.90;;;;;;6250455;28;20046;-76
2021/01/29 00:29:32;;;;;;;2.65;0.98;;;11.00;99.90;;;;;;6250351;28;20136;-77
2021/01/29 00:32:33;;;;;;;1.30;1.00;;;10.90;99.90;;;;;;6250140;28;20056;-77
2021/01/29 00:35:36;;;;;;;1.25;0.90;;;10.90;99.90;;;;;;6249751;28;20056;-77
2021/01/29 00:38:38;;;;;;;1.08;0.98;;;10.90;99.90;;;;;;6250029;28;20042;-77
2021/01/29 00:41:40;;;;;;;1.60;1.08;;;10.80;99.90;;;;;;6249920;28;20555;-77
2021/01/29 00:44:41;;;;;;;1.40;1.00;;;10.70;99.90;;;;;;6249728;28;20052;-76
2021/01/29 00:47:43;;;;;;;1.48;1.20;;;10.70;99.90;;;;;;6249485;28;20414;-76
2021/01/29 00:50:44;;;;;;;2.92;1.38;;;10.70;99.90;;;;;;6249586;28;20152;-77
2021/01/29 00:53:46;;;;;;;2.00;1.23;;;10.70;99.90;;;;;;6249904;28;20445;-76
2021/01/29 00:56:47;;;;;;;2.90;1.80;;;10.60;99.90;;;;;;6249327;28;20564;-77
2021/01/29 00:59:49;;;;;;;3.33;1.48;;;10.60;99.90;;;;;;6249509;28;20150;-77
2021/01/29 01:02:51;;;;;;;2.47;1.95;;;10.60;99.90;;;;;;6249447;28;20050;-77
2021/01/29 01:05:53;;;;;;;2.60;1.77;;;10.60;99.90;;;;;;6250263;28;20046;-78
2021/01/29 01:08:55;;;;;;;8.80;1.80;;;10.50;99.90;;;;;;6250005;28;20132;-77
2021/01/29 01:11:56;;;;;;;2.25;1.95;;;10.50;99.90;;;;;;6249623;28;20060;-78
2021/01/29 01:14:58;;;;;;;2.65;1.67;;;10.50;99.90;;;;;;6250978;28;20072;-77
2021/01/29 01:18:00;;;;;;;6.25;1.45;;;10.50;99.90;;;;;;6249018;28;20076;-78
2021/01/29 01:21:02;;;;;;;5.63;2.08;;;10.50;99.90;;;;;;6250188;28;20106;-77
2021/01/29 01:24:05;;;;;;;3.15;1.80;;;10.50;99.90;;;;;;6250466;28;20065;-78
2021/01/29 01:27:07;;;;;;;3.67;1.88;;;10.50;99.90;;;;;;6250599;28;20665;-78
2021/01/29 01:30:12;;;;;;;1.70;1.60;;;10.50;99.90;;;;;;6250005;28;20064;-77
2021/01/29 01:33:13;;;;;;;4.15;1.88;;;10.50;99.90;;;;;;6249012;28;20147;-78
2021/01/29 01:36:15;;;;;;;3.88;1.77;;;10.50;99.90;;;;;;6251108;28;20522;-77
2021/01/29 01:39:17;;;;;;;2.35;2.10;;;10.60;99.90;;;;;;6249685;28;20073;-78
2021/01/29 01:42:18;;;;;;;2.17;1.50;;;10.50;99.90;;;;;;6250050;28;20100;-77
2021/01/29 01:45:57;;;;;;;3.17;1.38;;;10.50;99.90;;;;;;6249679;28;20041;-77
2021/01/29 01:49:04;;;;;;;4.85;2.25;;;10.50;99.90;;;;;;6248513;28;20056;-77
2021/01/29 01:52:12;;;;;;;4.80;2.17;;;10.50;99.90;;;;;;6249689;28;20112;-78
2021/01/29 01:55:19;;;;;;;1.70;1.60;;;10.50;99.90;;;;;;6249301;28;20119;-77
2021/01/29 01:58:21;;;;;;;4.87;2.60;;;10.50;99.90;;;;;;6249696;28;20124;-77
2021/01/29 02:01:23;;;;;;;2.85;1.33;;;10.50;99.90;;;;;;6248480;28;20080;-76
2021/01/29 02:04:29;;;;;;;3.22;1.63;;;10.50;99.90;;;;;;6249154;28;20045;-78
2021/01/29 02:07:37;;;;;;;1.83;1.48;;;10.50;99.90;;;;;;6248935;28;20087;-77
2021/01/29 02:10:39;;;;;;;2.22;1.35;;;10.50;99.90;;;;;;6248971;28;20087;-77
2021/01/29 02:13:41;;;;;;;2.60;2.08;;;10.50;99.90;;;;;;6252777;28;20526;-78
2021/01/29 02:16:50;;;;;;;2.72;1.98;;;10.50;99.90;;;;;;6265941;28;20049;-77
2021/01/29 02:20:20;;;;;;;2.65;1.92;;;10.60;99.90;;;;;;6247812;28;20590;-77
2021/01/29 02:23:41;;;;;;;3.60;1.80;;;;;;;;;;6247168;28;20052;-76
2021/01/29 02:27:31;;;;;;;1.80;1.42;;;10.60;99.90;;;;;;6247228;28;20431;-77
2021/01/29 02:30:48;;;;;;;;;;;10.60;99.90;;;;;;6247831;28;20041;-77
2021/01/29 02:34:41;;;;;;;1.83;1.25;;;10.60;99.90;;;;;;6247554;28;19921;-76
2021/01/29 02:38:16;;;;;;;1.02;0.93;;;10.60;99.90;;;;;;6246930;28;20410;-76
2021/01/29 02:41:28;;;;;;;1.17;1.02;;;10.60;99.90;;;;;;6247614;28;20083;-75
2021/01/29 02:44:42;;;;;;;2.30;1.23;;;10.60;99.90;;;;;;6247416;28;20052;-76
2021/01/29 02:47:49;;;;;;;1.77;0.93;;;10.60;99.90;;;;;;6246642;28;20426;-76
2021/01/29 02:50:58;;;;;;;1.17;1.05;;;10.70;99.90;;;;;;6246644;28;20042;-76
2021/01/29 02:54:04;;;;;;;2.70;1.35;;;10.60;99.90;;;;;;6246741;28;20107;-76
2021/01/29 02:57:14;;;;;;;3.20;1.67;;;10.70;99.90;;;;;;6248285;28;20060;-77
2021/01/29 03:00:22;;;;;;;2.03;0.98;;;10.70;99.90;;;;;;6248423;28;20041;-76
2021/01/29 03:03:29;;;;;;;0.88;0.70;;;10.70;99.90;;;;;;6247608;28;20561;-78
2021/01/29 03:06:36;;;;;;;3.15;1.77;;;10.70;99.90;;;;;;6249083;28;20095;-78
2021/01/29 03:09:43;;;;;;;1.23;0.80;;;10.70;99.90;;;;;;6249163;28;20140;-78
2021/01/29 03:12:48;;;;;;;2.77;1.07;;;10.70;99.90;;;;;;6249290;28;20593;-77
2021/01/29 03:15:55;;;;;;;0.88;0.73;;;10.70;99.90;;;;;;6249056;28;20045;-77
2021/01/29 03:19:02;;;;;;;3.17;0.53;;;10.60;99.90;;;;;;6248309;28;20049;-77
2021/01/29 03:22:09;;;;;;;0.90;0.80;;;10.60;99.90;;;;;;6247836;28;20053;-77
2021/01/29 03:25:17;;;;;;;1.02;0.65;;;10.60;99.90;;;;;;6248308;28;20125;-77
2021/01/29 03:28:23;;;;;;;2.22;1.10;;;10.60;99.90;;;;;;6247967;28;20559;-77
2021/01/29 03:31:25;;;;;;;1.13;0.90;;;10.60;99.90;;;;;;6249028;28;20710;-77
2021/01/29 03:34:33;;;;;;;1.42;1.10;;;10.60;99.90;;;;;;6249188;28;20084;-78
2021/01/29 03:37:40;;;;;;;3.30;1.05;;;10.50;99.90;;;;;;6252127;28;20559;-78
2021/01/29 03:40:43;;;;;;;1.25;0.60;;;10.50;99.90;;;;;;6254549;28;20073;-78
2021/01/29 03:43:55;;;;;;;3.90;0.70;;;10.40;99.90;;;;;;6251901;28;20103;-78
2021/01/29 03:47:01;;;;;;;1.23;0.85;;;10.40;99.90;;;;;;6251287;28;20045;-78
2021/01/29 03:50:17;;;;;;;1.13;0.80;;;10.30;99.90;;;;;;6248741;28;20137;-77
2021/01/29 03:53:30;;;;;;;1.13;0.80;;;10.30;99.90;;;;;;6246219;28;20053;-77
2021/01/29 03:56:56;;;;;;;0.60;0.50;;;10.30;99.90;;;;;;6245741;28;20416;-76
2021/01/29 04:00:16;;;;;;;0.73;0.70;;;10.20;99.90;;;;;;6246001;28;20077;-76
2021/01/29 04:03:23;;;;;;;1.88;0.85;;;10.20;99.90;;;;;;6245796;28;20049;-76
2021/01/29 04:06:27;;;;;;;1.20;0.98;;;10.20;99.90;;;;;;6245866;28;20047;-77
2021/01/29 04:09:36;;;;;;;4.88;0.77;;;10.20;99.90;;;;;;6246088;28;20046;-75
2021/01/29 04:12:40;;;;;;;;;;;10.10;99.90;;;;;;6246156;28;20446;-76
2021/01/29 04:15:45;;;;;;;0.60;0.47;;;10.10;99.90;;;;;;6248443;28;20552;-77
2021/01/29 04:18:50;;;;;;;0.45;0.40;;;10.10;99.90;;;;;;6250221;28;20392;-77
2021/01/29 04:21:59;;;;;;;2.80;0.60;;;10.10;99.90;;;;;;6250478;28;20049;-77
2021/01/29 04:25:07;;;;;;;3.67;1.27;;;10.10;99.90;;;;;;6250811;28;20046;-76
2021/01/29 04:28:18;;;;;;;0.40;0.40;;;10.10;99.90;;;;;;6250127;28;20052;-77
2021/01/29 04:31:23;;;;;;;0.75;0.50;;;10.10;99.90;;;;;;6250465;28;20076;-76
2021/01/29 04:34:28;;;;;;;1.98;0.60;;;10.10;99.90;;;;;;6250078;28;20045;-76
2021/01/29 04:37:33;;;;;;;2.60;0.40;;;10.10;99.90;;;;;;6250511;28;20049;-76
2021/01/29 04:40:40;;;;;;;0.70;0.60;;;10.10;99.90;;;;;;6250166;28;20450;-76
2021/01/29 04:44:07;;;;;;;0.57;0.30;;;10.10;99.90;;;;;;6250327;28;20151;-77
2021/01/29 04:47:21;;;;;;;0.30;0.30;;;10.20;99.90;;;;;;6249779;28;20128;-77
2021/01/29 04:50:42;;;;;;;1.73;0.32;;;10.20;99.90;;;;;;6249438;28;20503;-77
2021/01/29 04:54:09;;;;;;;7.13;0.60;;;10.20;99.90;;;;;;6249853;28;20469;-77
2021/01/29 04:57:47;;;;;;;0.50;0.50;;;10.10;99.90;;;;;;6249531;28;20053;-77
2021/01/29 05:01:35;;;;;;;0.50;0.50;;;10.10;99.90;;;;;;6249622;28;20049;-77
2021/01/29 05:05:18;;;;;;;1.42;0.47;;;10.10;99.90;;;;;;6249680;28;20507;-77
2021/01/29 05:08:46;;;;;;;1.27;0.43;;;10.10;99.90;;;;;;6249407;28;20101;-76
2021/01/29 05:12:11;;;;;;;1.85;0.80;;;10.10;99.90;;;;;;6249008;28;20046;-77
2021/01/29 05:15:32;;;;;;;0.60;0.60;;;10.20;99.90;;;;;;6249284;28;20054;-76
2021/01/29 05:19:05;;;;;;;0.60;0.60;;;10.20;99.90;;;;;;6248849;28;20045;-76
2021/01/29 05:22:44;;;;;;;1.27;0.47;;;10.20;99.90;;;;;;6248821;28;20045;-77
2021/01/29 05:26:39;;;;;;;1.90;0.50;;;10.20;99.90;;;;;;6172513;28;20102;-77
2021/01/29 05:29:54;;;;;;;0.47;0.47;;;10.20;99.90;;;;;;6221158;28;20296;-76
2021/01/29 05:33:08;;;;;;;1.60;0.80;;;10.20;99.90;;;;;;6248535;28;20495;-77
2021/01/29 05:36:23;;;;;;;0.60;0.60;;;10.20;99.90;;;;;;6248660;28;20526;-77
2021/01/29 05:39:42;;;;;;;2.22;0.57;;;10.20;99.90;;;;;;6248235;28;20080;-77
2021/01/29 05:43:04;;;;;;;3.08;0.73;;;10.20;99.90;;;;;;6248658;28;20041;-77
2021/01/29 05:46:13;;;;;;;2.67;0.68;;;10.30;99.90;;;;;;6248640;28;20141;-77
2021/01/29 05:49:21;;;;;;;0.85;0.85;;;10.20;99.90;;;;;;6248571;28;20049;-77
2021/01/29 05:52:44;;;;;;;2.85;0.80;;;10.20;99.90;;;;;;6248576;28;20155;-77
2021/01/29 05:55:54;;;;;;;0.50;0.50;;;10.30;99.90;;;;;;6248271;28;20041;-76
2021/01/29 05:59:09;;;;;;;1.05;0.70;;;10.30;99.90;;;;;;6253512;28;20065;-77
2021/01/29 06:02:38;;;;;;;1.05;0.60;;;10.20;99.90;;;;;;6260840;28;20165;-77
2021/01/29 06:06:07;;;;;;;0.82;0.60;;;10.20;99.90;;;;;;6248848;28;20124;-77
2021/01/29 06:09:20;;;;;;;1.35;0.70;;;10.20;99.90;;;;;;6248247;28;20140;-76
2021/01/29 06:13:02;;;;;;;0.80;0.68;;;10.10;99.90;;;;;;6247883;28;20098;-77
2021/01/29 06:16:31;;;;;;;2.00;0.80;;;10.00;99.90;;;;;;6171607;28;20047;-77
2021/01/29 06:20:03;;;;;;;0.88;0.85;;;10.00;99.90;;;;;;6247295;28;20533;-77
2021/01/29 06:23:28;;;;;;;1.58;0.70;;;9.90;99.90;;;;;;6249881;28;20051;-77
2021/01/29 06:27:12;;;;;;;1.63;0.80;;;9.90;99.90;;;;;;6248049;28;20041;-77
2021/01/29 06:30:38;;;;;;;0.55;0.52;;;10.00;99.90;;;;;;6247531;28;20049;-76
2021/01/29 06:34:02;;;;;;;0.50;0.50;;;9.90;99.90;;;;;;6245491;28;20410;-76
2021/01/29 06:37:16;;;;;;;0.68;0.43;;;9.90;99.90;;;;;;6247307;28;20057;-76
2021/01/29 06:40:23;;;;;;;0.63;0.50;;;9.90;99.90;;;;;;6247305;28;20107;-76
2021/01/29 06:43:48;;;;;;;0.63;0.60;;;9.90;99.90;;;;;;6247540;28;20053;-77
2021/01/29 06:47:21;;;;;;;0.77;0.47;;;9.80;99.90;;;;;;6247311;28;20043;-76
2021/01/29 06:50:35;;;;;;;2.15;0.57;;;9.80;99.90;;;;;;6235221;28;20568;-76
2021/01/29 06:54:15;;;;;;;1.05;0.52;;;9.80;99.90;;;;;;6247645;28;20056;-77
2021/01/29 06:57:31;;;;;;;0.95;0.50;;;9.80;99.90;;;;;;6241213;28;20056;-76
2021/01/29 07:00:46;;;;;;;1.00;0.30;;;9.80;99.90;;;;;;6248434;28;20499;-76
2021/01/29 07:04:37;;;;;;;1.98;0.40;;;9.80;99.90;;;;;;6241681;28;20482;-75
2021/01/29 07:07:58;;;;;;;0.52;0.52;;;9.80;99.90;;;;;;6235530;28;20060;-76
2021/01/29 07:11:22;;;;;;;1.80;0.95;;;9.70;99.90;;;;;;6234911;28;20053;-76
2021/01/29 07:14:39;;;;;;;3.33;0.70;;;9.80;99.90;;;;;;6232264;28;20046;-75
2021/01/29 07:17:54;;;;;;;0.75;0.50;;;9.80;99.90;;;;;;6224445;28;20050;-75
2021/01/29 07:21:10;;;;;;;2.92;0.50;;;9.80;99.90;;;;;;6222080;28;20053;-76
2021/01/29 07:24:31;;;;;;;2.83;0.40;;;9.80;99.90;;;;;;6246290;28;20057;-76
2021/01/29 07:27:44;;;;;;;0.43;0.43;;;9.80;99.90;;;;;;6246026;28;20053;-77
2021/01/29 07:31:10;;;;;;;0.77;0.45;;;9.80;99.90;;;;;;6246880;28;20041;-75
2021/01/29 07:34:23;;;;;;;0.40;0.40;;;9.90;99.90;;;;;;6246505;28;20054;-76
2021/01/29 07:38:07;;;;;;;0.52;0.40;;;9.90;99.90;;;;;;6247162;28;20057;-76
2021/01/29 07:41:29;;;;;;;2.80;0.60;;;9.90;99.90;;;;;;6194324;28;20053;-77
2021/01/29 07:44:39;;;;;;;0.65;0.55;;;10.00;99.90;;;;;;6221952;28;20053;-76
2021/01/29 07:47:58;;;;;;;2.00;0.50;;;10.00;99.90;;;;;;6221708;28;20104;-75
2021/01/29 07:51:06;;;;;;;0.52;0.52;;;10.10;99.90;;;;;;6225275;28;20112;-76
2021/01/29 07:54:27;;;;;;;;;;;10.10;99.90;;;;;;6227938;28;20133;-77
2021/01/29 07:58:05;;;;;;;2.97;0.55;;;10.10;99.90;;;;;;6227283;28;19921;-76
2021/01/29 08:01:23;;;;;;;1.17;0.77;;;10.20;99.90;;;;;;6226764;28;20452;-77
2021/01/29 08:04:36;;;;;;;0.85;0.40;;;10.10;99.90;;;;;;6227058;28;20049;-76
2021/01/29 08:07:40;;;;;;;0.60;0.35;;;10.20;99.90;;;;;;6226324;28;20045;-76
2021/01/29 08:10:45;;;;;;;0.93;0.55;;;10.30;99.90;;;;;;6226265;28;20038;-76
2021/01/29 08:14:14;;;;;;;0.95;0.70;;;10.40;99.90;;;;;;6239022;28;20128;-75
2021/01/29 08:17:33;;;;;;;5.55;0.98;;;10.40;99.90;;;;;;6250755;28;20486;-76
2021/01/29 08:20:51;;;;;;;1.48;0.60;;;10.50;99.90;;;;;;6250595;28;20053;-75
2021/01/29 08:24:02;;;;;;;0.80;0.70;;;10.60;99.80;;;;;;6251379;28;20109;-76
2021/01/29 08:27:32;;;;;;;1.15;0.88;;;10.60;98.40;;;;;;6251037;28;20045;-76
2021/01/29 08:31:00;;;;;;;2.38;0.60;;;10.60;98.60;;;;;;6250855;28;20037;-76
2021/01/29 08:34:45;;;;;;;6.60;0.95;;;10.70;98.40;;;;;;6246032;28;20049;-76
2021/01/29 08:37:52;;;;;;;0.57;0.57;;;10.70;97.80;;;;;;6250798;28;20053;-76
2021/01/29 08:41:03;;;;;;;1.20;1.08;;;10.70;96.10;;;;;;6251851;28;20128;-75
2021/01/29 08:44:24;;;;;;;2.47;0.82;;;10.70;95.50;;;;;;6251940;28;20076;-76
2021/01/29 08:47:41;;;;;;;1.80;1.45;;;10.80;94.40;;;;;;6250761;28;20042;-76
2021/01/29 08:51:01;;;;;;;3.72;1.15;;;10.90;93.10;;;;;;6252352;28;20073;-77
2021/01/29 08:54:34;;;;;;;2.38;0.70;;;11.10;92.30;;;;;;6250652;28;20434;-77
2021/01/29 08:57:46;;;;;;;1.33;0.60;;;11.10;91.80;;;;;;6250011;28;20541;-76
2021/01/29 09:00:47;;;;;;;0.75;0.60;;;11.10;91.00;;;;;;6248826;28;20148;-76
2021/01/29 09:03:59;;;;;;;2.78;0.80;;;11.00;91.00;;;;;;6250107;28;20045;-76
2021/01/29 09:07:05;;;;;;;6.47;0.93;;;11.00;91.40;;;;;;6250401;28;20041;-76
2021/01/29 09:10:14;;;;;;;1.77;0.80;;;11.00;91.60;;;;;;6254954;28;20046;-77
2021/01/29 09:13:19;;;;;;;1.20;0.60;;;11.10;91.50;;;;;;6250841;28;20052;-75
2021/01/29 09:16:26;;;;;;;2.17;0.90;;;11.30;91.00;;;;;;6249205;28;20041;-74
2021/01/29 09:19:29;;;;;;;3.25;0.70;;;11.40;89.90;;;;;;6249415;28;20049;-74
2021/01/29 09:22:36;;;;;;;2.20;0.77;;;11.70;93.80;;;;;;6249006;28;20056;-74
2021/01/29 09:25:47;;;;;;;6.82;1.70;;;11.70;88.60;;;;;;6249455;28;20053;-74
2021/01/29 09:28:57;;;;;;;7.95;2.22;;;12.00;86.50;;;;;;6248502;28;20503;-75
2021/01/29 09:32:00;;;;;;;2.47;1.30;;;12.10;83.80;;;;;;6248907;28;20037;-75
2021/01/29 09:35:03;;;;;;;5.63;1.20;;;;;;;;;;6248977;28;20079;-74
2021/01/29 09:38:09;;;;;;;1.73;1.15;;;12.10;82.10;;;;;;6248273;28;20144;-75
2021/01/29 09:41:17;;;;;;;3.45;0.88;;;12.00;80.90;;;;;;6248723;28;20467;-75
2021/01/29 09:44:23;;;;;;;4.57;1.20;;;;;;;;;;6248692;28;20415;-76
2021/01/29 09:47:26;;;;;;;1.65;0.98;;;12.10;79.10;;;;;;6248041;28;20049;-74
2021/01/29 09:50:30;;;;;;;7.95;1.17;;;12.40;79.20;;;;;;6248438;28;20095;-76
2021/01/29 09:53:40;;;;;;;3.88;1.55;;;12.60;78.00;;;;;;6248720;28;20410;-76
2021/01/29 09:56:44;;;;;;;4.03;1.17;;;12.70;76.90;;;;;;6248070;28;20041;-76
2021/01/29 09:59:55;;;;;;;5.63;1.42;;;12.60;78.60;;;;;;6247707;28;20046;-76
2021/01/29 10:03:02;;;;;;;6.05;1.77;;;12.60;78.20;;;;;;6247831;28;20418;-77
2021/01/29 10:06:09;;;;;;;4.60;1.30;;;12.60;78.60;;;;;;6248292;28;20065;-76
2021/01/29 10:09:13;;;;;;;7.47;1.63;;;12.60;78.80;;;;;;6248173;28;20095;-76
2021/01/29 10:12:20;;;;;;;5.07;1.20;;;12.90;77.90;;;;;;6247142;28;20461;-76
2021/01/29 10:15:22;;;;;;;6.07;1.90;;;13.10;77.70;;;;;;6223366;28;20527;-77
2021/01/29 10:18:26;;;;;;;4.05;1.40;;;13.20;76.80;;;;;;6222739;28;20046;-77
2021/01/29 10:22:00;;;;;;;10.05;1.70;;;13.10;75.20;;;;;;6223783;28;20054;-77
2021/01/29 10:25:25;;;;;;;4.20;1.13;;;12.90;76.00;;;;;;6223621;28;20061;-76
2021/01/29 10:28:45;;;;;;;0.98;0.73;;;12.80;77.50;;;;;;6236789;28;20065;-77
2021/01/29 10:31:53;;;;;;;6.10;1.10;;;12.70;76.60;;;;;;6269589;28;20037;-76
2021/01/29 10:34:57;;;;;;;;;;;12.60;76.30;;;;;;6267264;28;20052;-77
2021/01/29 10:38:05;;;;;;;2.65;1.42;;;12.50;77.60;;;;;;6269706;28;19927;-74
2021/01/29 10:41:14;;;;;;;4.63;2.08;;;12.40;76.40;;;;;;6269834;28;20053;-76
2021/01/29 10:44:19;;;;;;;2.60;1.33;;;12.40;76.70;;;;;;6269429;28;20049;-77
2021/01/29 10:47:36;;;;;;;6.20;1.60;;;12.40;76.30;;;;;;6269117;28;20051;-76
2021/01/29 10:50:43;;;;;;;10.05;1.35;;;;;;;;;;6267099;28;20052;-75
2021/01/29 10:53:46;;;;;;;;;;;12.30;76.70;;;;;;6270115;28;20585;-77
2021/01/29 10:56:56;;;;;;;7.72;1.80;;;12.30;78.40;;;;;;6266579;28;19927;-76
2021/01/29 11:00:01;;;;;;;3.30;1.20;;;12.30;77.40;;;;;;6266196;28;20048;-76
2021/01/29 11:03:07;;;;;;;15.77;2.10;;;12.10;77.80;;;;;;6269070;28;20403;-75
2021/01/29 11:06:11;;;;;;;5.53;2.40;;;12.10;78.50;;;;;;6266568;28;20044;-76
2021/01/29 11:09:26;;;;;;;8.23;1.33;;;12.10;78.20;;;;;;6269721;28;20114;-76
2021/01/29 11:12:32;;;;;;;8.43;2.67;;;12.10;79.60;;;;;;6267627;28;20514;-77
2021/01/29 11:15:42;;;;;;;7.55;1.77;;;11.90;81.30;;;;;;6269074;28;20041;-77
2021/01/29 11:18:47;;;;;;;3.90;1.10;;;;;;;;;;6268908;28;20049;-76
2021/01/29 11:22:12;;;;;;;9.20;1.48;;;11.70;82.20;;;;;;6269468;28;20079;-76
2021/01/29 11:25:42;;;;;;;13.13;1.88;;;11.70;82.30;;;;;;6268254;28;20052;-76
2021/01/29 11:28:56;;;;;;;4.40;1.40;;;11.90;81.30;;;;;;6262043;28;20076;-77
2021/01/29 11:32:19;;;;;;;3.83;1.33;;;12.40;78.50;;;;;;6269516;28;20049;-77
2021/01/29 11:35:39;;;;;;;5.65;1.80;;;12.60;78.20;;;;;;6268227;28;20693;-76
2021/01/29 11:39:08;;;;;;;3.92;1.60;;;12.70;78.40;;;;;;6269044;28;20406;-79
2021/01/29 11:42:18;;;;;;;7.72;1.52;;;12.70;78.40;;;;;;6268853;28;20072;-77
2021/01/29 11:45:23;;;;;;;4.05;2.30;;;12.70;77.60;;;;;;6268517;28;20105;-77
2021/01/29 11:48:33;;;;;;;2.25;0.95;;;12.80;77.30;;;;;;6266273;28;20159;-76
2021/01/29 11:51:38;;;;;;;2.83;1.35;;;12.70;76.30;;;;;;6268901;28;20136;-76
2021/01/29 11:54:51;;;;;;;3.75;1.20;;;12.70;74.60;;;;;;6266438;28;20041;-76
2021/01/29 11:58:01;;;;;;;8.82;2.03;;;12.70;74.70;;;;;;6263507;28;20640;-76
2021/01/29 12:01:10;;;;;;;13.93;2.42;;;12.60;74.70;;;;;;6269741;28;20045;-76
2021/01/29 12:04:23;;;;;;;9.00;1.67;;;12.50;74.70;;;;;;6269405;28;20510;-77
2021/01/29 12:07:31;;;;;;;5.22;1.73;;;12.30;75.20;;;;;;6268620;28;20045;-76
2021/01/29 12:10:41;;;;;;;4.22;1.17;;;12.20;77.10;;;;;;6268701;28;20098;-75
2021/01/29 12:13:55;;;;;;;7.15;2.22;;;12.00;79.20;;;;;;6267859;28;20447;-76
2021/01/29 12:16:59;;;;;;;7.85;1.92;;;11.80;81.30;;;;;;6264196;28;20123;-76
2021/01/29 12:20:04;;;;;;;8.55;1.70;;;11.50;84.20;;;;;;6263181;28;20128;-76
2021/01/29 12:23:12;;;;;;;9.60;2.65;;;11.20;87.70;;;;;;6266558;28;20037;-76
2021/01/29 12:26:22;;;;;;;7.95;1.55;;;10.80;90.40;;;;;;6268726;28;20048;-75
2021/01/29 12:29:38;;;;;;;7.45;2.35;;;10.50;91.80;;;;;;6269646;28;20151;-78
2021/01/29 12:33:00;;;;;;;3.70;1.67;;;10.50;92.40;;;;;;6268534;28;20151;-77
2021/01/29 12:36:07;;;;;;;5.47;1.17;;;10.40;93.40;;;;;;6270229;28;20450;-76
2021/01/29 12:39:14;;;;;;;7.10;1.13;;;10.40;93.90;;;;;;6273041;28;20170;-76
2021/01/29 12:42:20;;;;;;;4.10;1.73;;;10.50;94.10;;;;;;6272733;28;20499;-75
2021/01/29 12:45:28;;;;;;;4.47;1.08;;;10.70;93.70;;;;;;6273407;28;20073;-75
2021/01/29 12:48:44;;;;;;;3.97;1.33;;;11.00;92.30;;;;;;6272544;28;20060;-76
2021/01/29 12:51:51;;;;;;;4.10;1.30;;;11.20;90.90;;;;;;6272675;28;20052;-77
2021/01/29 12:55:01;;;;;;;1.23;0.90;;;11.40;90.90;;;;;;6272375;28;20048;-75
2021/01/29 12:58:06;;;;;;;5.40;1.42;;;11.50;90.00;;;;;;6272480;28;20045;-75
2021/01/29 13:01:13;;;;;;;4.22;0.98;;;11.50;89.80;;;;;;6270416;28;20139;-75
2021/01/29 13:04:23;;;;;;;10.52;2.10;;;11.50;88.10;;;;;;6271223;28;20142;-75
2021/01/29 13:07:28;;;;;;;3.53;1.15;;;11.40;89.30;;;;;;6166037;28;20076;-75
2021/01/29 13:10:38;;;;;;;19.02;15.70;;;11.30;89.30;;;;;;6272125;28;20055;-74
2021/01/29 13:13:46;;;;;;;9.48;8.25;;;11.30;89.10;;;;;;6259393;28;20674;-74
2021/01/29 13:17:09;;;;;;;19.45;11.50;;;11.20;89.50;;;;;;6264779;28;20398;-75
2021/01/29 13:20:14;;;;;;;34.97;22.05;;;11.10;90.20;;;;;;6257378;28;20095;-75
2021/01/29 13:23:38;;;;;;;8.35;3.72;;;11.00;90.90;;;;;;6264448;28;20102;-74
2021/01/29 13:26:44;;;;;;;4.35;2.03;;;10.90;91.30;;;;;;6249725;28;20202;-75
2021/01/29 13:29:45;;;;;;;4.20;2.13;;;10.70;92.40;;;;;;6241270;28;20152;-75
2021/01/29 13:32:48;;;;;;;7.18;3.25;;;10.60;93.20;;;;;;6253825;28;20052;-75
2021/01/29 13:36:01;;;;;;;7.40;1.95;;;10.40;94.20;;;;;;6227026;28;20389;-76
2021/01/29 13:39:50;;;;;;;7.43;2.88;;;10.30;95.20;;;;;;6260916;28;20046;-75
2021/01/29 13:42:52;;;;;;;3.97;2.33;;;10.10;96.30;;;;;;6279306;28;20025;-75
2021/01/29 13:45:57;;;;;;;10.60;3.17;;;10.00;96.80;;;;;;6280562;28;20080;-75
2021/01/29 13:49:12;;;;;;;7.30;1.52;;;10.00;96.90;;;;;;6289951;28;20075;-74
2021/01/29 13:52:25;;;;;;;3.20;1.27;;;10.00;97.10;;;;;;6287555;28;20036;-75
2021/01/29 13:55:31;;;;;;;3.85;1.23;;;9.90;96.70;;;;;;6258170;28;20121;-75
2021/01/29 13:58:38;;;;;;;9.38;2.10;;;9.90;97.00;;;;;;6250210;28;20052;-74
2021/01/29 14:01:45;;;;;;;5.38;1.60;;;9.90;97.10;;;;;;6261224;28;20586;-75
2021/01/29 14:04:54;;;;;;;3.83;1.80;;;9.80;97.70;;;;;;6286224;28;20028;-74
2021/01/29 14:07:59;;;;;;;6.55;1.50;;;9.80;98.20;;;;;;6300059;28;20037;-75
2021/01/29 14:11:18;;;;;;;12.45;1.58;;;9.80;98.60;;;;;;6283614;28;20049;-74
2021/01/29 14:14:24;;;;;;;;;;;9.60;98.80;;;;;;6297459;28;20040;-75
2021/01/29 14:17:41;;;;;;;10.45;9.38;;;9.50;99.30;;;;;;6282653;28;20020;-74
2021/01/29 14:20:49;;;;;;;9.98;4.65;;;9.40;99.30;;;;;;6272768;28;20048;-75
2021/01/29 14:23:57;;;;;;;10.02;7.13;;;9.20;99.90;;;;;;6268335;28;20140;-76
2021/01/29 14:27:07;;;;;;;8.82;3.97;;;9.20;99.90;;;;;;6271409;28;20098;-75
2021/01/29 14:30:17;;;;;;;5.10;4.05;;;9.10;99.90;;;;;;6265623;28;20501;-75
2021/01/29 14:33:27;;;;;;;4.78;2.25;;;9.10;99.90;;;;;;6270648;28;20053;-76
2021/01/29 14:36:45;;;;;;;17.92;6.78;;;9.10;99.90;;;;;;6270037;28;20037;-76
2021/01/29 14:40:15;;;;;;;6.10;2.97;;;9.10;99.90;;;;;;6269389;28;20051;-76
2021/01/29 14:43:33;;;;;;;12.18;3.17;;;9.20;99.90;;;;;;6258753;28;20041;-76
2021/01/29 14:46:56;;;;;;;12.57;2.45;;;9.30;99.90;;;;;;6269772;28;20128;-76
2021/01/29 14:50:13;;;;;;;5.28;2.65;;;9.30;99.90;;;;;;6267011;28;20045;-76
2021/01/29 14:53:26;;;;;;;5.95;1.33;;;9.20;99.90;;;;;;6269904;28;20562;-76
2021/01/29 14:56:34;;;;;;;6.55;2.63;;;9.10;99.90;;;;;;6266782;28;20391;-76
2021/01/29 14:59:42;;;;;;;6.43;1.77;;;8.90;99.90;;;;;;6269170;28;20103;-76
2021/01/29 15:02:49;;;;;;;8.13;1.70;;;8.80;99.90;;;;;;6269354;28;20044;-77
2021/01/29 15:05:52;;;;;;;10.10;2.00;;;8.80;99.90;;;;;;6269396;28;20051;-77
2021/01/29 15:08:59;;;;;;;9.05;1.40;;;8.70;99.90;;;;;;6266698;28;20465;-76
2021/01/29 15:12:01;;;;;;;4.15;1.85;;;8.70;99.90;;;;;;6269366;28;20069;-76
2021/01/29 15:15:37;;;;;;;4.68;2.00;;;8.70;99.90;;;;;;6264846;28;20045;-76
2021/01/29 15:18:39;;;;;;;15.43;5.00;;;8.80;99.90;;;;;;6268903;28;20049;-77
2021/01/29 15:21:40;;;;;;;11.50;5.45;;;8.80;99.90;;;;;;6269384;28;20055;-78
2021/01/29 15:24:46;;;;;;;7.13;1.90;;;8.90;99.90;;;;;;6266611;28;20052;-77
2021/01/29 15:27:47;;;;;;;15.43;3.38;;;8.90;99.90;;;;;;6266257;28;20069;-76
2021/01/29 15:30:52;;;;;;;5.03;1.48;;;8.90;99.90;;;;;;6265790;28;20068;-77
2021/01/29 15:33:56;;;;;;;11.45;1.95;;;8.90;99.90;;;;;;6268708;28;20044;-75
2021/01/29 15:36:57;;;;;;;6.10;1.33;;;8.90;99.90;;;;;;6261065;28;20407;-75
2021/01/29 15:40:06;;;;;;;9.13;2.22;;;8.90;99.90;;;;;;6269365;28;20044;-76
2021/01/29 15:43:48;;;;;;;9.10;1.50;;;8.90;99.90;;;;;;6269032;28;20068;-76
2021/01/29 15:46:52;;;;;;;12.93;2.55;;;8.80;99.90;;;;;;6269285;28;20120;-75
2021/01/29 15:49:54;;;;;;;4.80;2.13;;;8.80;99.90;;;;;;6268054;28;20506;-75
2021/01/29 15:52:56;;;;;;;4.10;2.30;;;8.80;99.90;;;;;;6266725;28;20049;-76
2021/01/29 15:56:14;;;;;;;5.32;1.45;;;8.80;99.90;;;;;;6265601;28;20132;-76
2021/01/29 15:59:20;;;;;;;5.28;1.58;;;8.70;99.90;;;;;;6265531;28;20056;-75
2021/01/29 16:02:43;;;;;;;1.35;0.90;;;8.60;99.90;;;;;;6268429;28;20067;-75
2021/01/29 16:05:55;;;;;;;4.57;1.50;;;8.60;99.90;;;;;;6266504;28;20056;-75
2021/01/29 16:09:08;;;;;;;6.97;3.40;;;8.50;99.90;;;;;;6268667;28;20045;-75
2021/01/29 16:12:31;;;;;;;4.88;1.25;;;8.40;99.90;;;;;;6272311;28;20064;-76
2021/01/29 16:15:33;;;;;;;5.18;2.00;;;8.40;99.90;;;;;;6267732;28;20045;-76
2021/01/29 16:18:34;;;;;;;6.72;1.10;;;8.30;99.90;;;;;;6270101;28;20525;-76
2021/01/29 16:21:38;;;;;;;14.95;1.95;;;8.30;99.90;;;;;;6268649;28;20507;-76
2021/01/29 16:24:41;;;;;;;6.22;1.40;;;8.20;99.90;;;;;;6273262;28;20384;-76
2021/01/29 16:27:45;;;;;;;12.90;2.13;;;8.10;99.90;;;;;;6273048;28;20052;-76
2021/01/29 16:30:46;;;;;;;7.97;1.67;;;8.10;99.90;;;;;;6267999;28;20045;-76
2021/01/29 16:33:48;;;;;;;18.52;2.83;;;8.10;99.90;;;;;;6270578;28;20053;-75
2021/01/29 16:36:52;;;;;;;6.80;1.60;;;8.10;99.90;;;;;;6272699;28;20033;-75
2021/01/29 16:39:54;;;;;;;3.13;2.25;;;8.10;99.90;;;;;;6269760;28;20474;-75
2021/01/29 16:43:11;;;;;;;11.25;2.40;;;8.10;99.90;;;;;;6267123;28;20396;-76
2021/01/29 16:46:30;;;;;;;5.40;1.40;;;8.10;99.90;;;;;;6273362;28;20123;-76